Terminal Aerodrome Forecast
Issued by NWS Blacksburg, VA

Home | Current Version | Previous Version | Text Only | Print | Product List | Glossary On
Versions: 1 2 3 4 5 6 7 8 9 10 11 12 13 14 15 16 17 18 19 20 21 22 23 24 25 26 27 28 29 30 31 32 33 34 35 36 37 38 39 40
000
FTUS41 KRNK 060528
TAFROA
TAF
KROA 060528Z 0606/0706 33006KT P6SM OVC025
     FM060800 33008KT P6SM -SHRA OVC015
     FM061300 32011G18KT P6SM SCT020 OVC035
     FM061900 32013G24KT P6SM OVC070
     FM070000 32008KT P6SM BKN090=

USA.gov is the U.S. government's official web portal to all federal, state and local government web resources and services.